Time;durP1;ratioP1;P1;durP2;ratioP2;P2;SDS_P1;SDS_P2;PMS_P1;PMS_P2;Temp;Humidity;BMP_temperature;BMP_pressure;BME280_temperature;BME280_humidity;BME280_pressure;Samples;Min_cycle;Max_cycle;Signal;HPM_P1;HPM_P2
2023/03/10 00:00:31;;;;;;;;;0.25;0.00;;;;;22.61;37.25;98429.81;5064020;28;63390;-75
2023/03/10 00:02:56;;;;;;;;;1.00;0.75;;;;;22.59;37.17;98422.00;5069882;28;45465;-75
2023/03/10 00:05:21;;;;;;;;;1.75;0.25;;;;;22.59;37.38;98434.50;5072631;27;45427;-76
2023/03/10 00:07:49;;;;;;;;;0.25;0.25;;;;;22.58;37.08;98432.84;5071569;27;45411;-76
2023/03/10 00:10:15;;;;;;;;;2.75;0.75;;;;;22.61;37.23;98437.81;5077851;27;46463;-77
2023/03/10 00:12:41;;;;;;;;;2.50;0.00;;;;;22.56;37.30;98422.38;5074134;28;45398;-76
2023/03/10 00:15:08;;;;;;;;;0.25;0.25;;;;;22.60;37.16;98418.34;5070908;27;45311;-75
2023/03/10 00:17:33;;;;;;;;;1.00;1.00;;;;;22.58;37.52;98416.88;5068829;28;45486;-76
2023/03/10 00:19:59;;;;;;;;;2.00;0.25;;;;;22.59;37.20;98423.84;5070765;27;46250;-76
2023/03/10 00:22:24;;;;;;;;;1.00;0.00;;;;;22.56;37.54;98412.53;5050241;28;45402;-76
2023/03/10 00:24:49;;;;;;;;;0.00;0.00;;;;;22.55;37.35;98413.53;5070379;28;68864;-76
2023/03/10 00:27:15;;;;;;;;;2.25;0.00;;;;;22.55;37.26;98410.84;5069337;28;63339;-76
2023/03/10 00:29:40;;;;;;;;;1.50;0.00;;;;;22.55;37.56;98402.84;5062353;27;74134;-76
2023/03/10 00:32:06;;;;;;;;;3.00;1.00;;;;;22.56;37.70;98403.72;5072970;28;62323;-76
2023/03/10 00:34:31;;;;;;;;;1.75;1.50;;;;;22.56;37.13;98399.19;5055451;28;45258;-76
2023/03/10 00:36:56;;;;;;;;;2.00;0.00;;;;;22.52;37.42;98389.91;5072227;28;45602;-76
2023/03/10 00:39:22;;;;;;;;;2.75;1.00;;;;;22.54;37.25;98387.88;5071252;28;59473;-76
2023/03/10 00:41:47;;;;;;;;;1.00;1.00;;;;;22.55;37.37;98383.38;5060378;28;74087;-76
2023/03/10 00:44:13;;;;;;;;;1.25;0.25;;;;;22.52;37.19;98367.72;5068028;28;45287;-75
2023/03/10 00:46:38;;;;;;;;;1.00;1.00;;;;;22.52;37.44;98363.25;5062874;28;46473;-77
2023/03/10 00:49:06;;;;;;;;;0.50;0.25;;;;;22.53;37.29;98361.41;5066818;27;47258;-76
2023/03/10 00:51:32;;;;;;;;;2.00;0.75;;;;;22.52;37.20;98355.25;5067730;27;45399;-76
2023/03/10 00:53:59;;;;;;;;;1.75;1.25;;;;;22.51;37.51;98363.41;5067995;27;45287;-76
2023/03/10 00:56:26;;;;;;;;;2.50;0.25;;;;;22.52;37.39;98373.06;5080008;27;45554;-76
2023/03/10 00:58:53;;;;;;;;;3.25;1.50;;;;;22.47;37.13;98362.94;5066833;27;45340;-76
2023/03/10 01:01:22;;;;;;;;;1.00;1.00;;;;;22.51;37.57;98382.06;5054111;28;46053;-77
2023/03/10 01:03:49;;;;;;;;;2.25;1.00;;;;;22.47;37.15;98373.59;5074053;27;45452;-76
2023/03/10 01:06:15;;;;;;;;;1.25;1.00;;;;;22.50;37.45;98391.06;5073660;28;46472;-76
2023/03/10 01:08:40;;;;;;;;;0.50;0.50;;;;;22.50;37.34;98389.22;5050211;28;76105;-76
2023/03/10 01:11:06;;;;;;;;;1.75;0.00;;;;;22.50;37.12;98375.91;5073486;28;45423;-76
2023/03/10 01:13:31;;;;;;;;;1.25;1.00;;;;;22.51;37.57;98377.56;5064362;27;69408;-76
2023/03/10 01:15:57;;;;;;;;;3.25;1.50;;;;;22.49;37.06;98376.09;5067106;28;45287;-75
2023/03/10 01:18:22;;;;;;;;;1.00;1.00;;;;;22.49;37.14;98368.09;5068007;27;60036;-75
2023/03/10 01:20:48;;;;;;;;;4.00;1.00;;;;;22.48;37.20;98363.75;5074664;27;45442;-76
2023/03/10 01:23:15;;;;;;;;;1.00;0.75;;;;;22.49;37.25;98360.94;5071193;27;45255;-77
2023/03/10 01:25:41;;;;;;;;;1.50;1.50;;;;;22.50;37.53;98340.44;5076694;27;45610;-76
2023/03/10 01:28:06;;;;;;;;;0.25;0.00;;;;;22.48;37.21;98339.78;5075136;27;46968;-76
2023/03/10 01:30:31;;;;;;;;;0.00;0.00;;;;;22.49;37.12;98362.78;5067901;28;63142;-76
2023/03/10 01:32:57;;;;;;;;;1.25;0.00;;;;;22.48;37.50;98356.59;5087607;27;65474;-76
2023/03/10 01:35:22;;;;;;;;;2.50;0.00;;;;;22.47;37.44;98362.09;5080457;27;45446;-76
2023/03/10 01:37:47;;;;;;;;;2.00;0.50;;;;;22.46;37.39;98358.59;5052596;28;65201;-76
2023/03/10 01:40:15;;;;;;;;;2.75;1.00;;;;;22.44;37.40;98360.63;5067739;27;45364;-76
2023/03/10 01:42:41;;;;;;;;;3.00;0.50;;;;;22.47;36.75;98356.75;5062617;27;45260;-76
2023/03/10 01:45:14;;;;;;;;;3.50;0.00;;;;;22.46;37.23;98352.47;5067357;28;45802;-76
2023/03/10 01:47:43;;;;;;;;;1.00;0.00;;;;;22.45;36.86;98343.63;5065754;28;45336;-76
2023/03/10 01:50:13;;;;;;;;;0.00;0.00;;;;;22.42;37.34;98341.31;5073670;28;45708;-76
2023/03/10 01:52:40;;;;;;;;;0.50;0.25;;;;;22.42;36.82;98345.84;5069424;28;45407;-76
2023/03/10 01:55:10;;;;;;;;;0.50;0.00;;;;;22.41;36.95;98334.31;5071333;27;45476;-76
2023/03/10 01:57:42;;;;;;;;;2.00;0.50;;;;;22.43;37.04;98342.13;5070192;27;46291;-76
2023/03/10 02:00:12;;;;;;;;;3.00;0.00;;;;;22.42;37.09;98338.66;5069741;28;45308;-76
2023/03/10 02:02:52;;;;;;;;;3.00;0.00;;;;;22.42;36.83;98333.31;5062776;28;45480;-76
2023/03/10 02:05:18;;;;;;;;;1.00;0.00;;;;;22.43;37.25;98320.81;5074964;27;45237;-76
2023/03/10 02:07:43;;;;;;;;;0.00;0.00;;;;;22.41;37.08;98325.50;5069502;27;45716;-76
2023/03/10 02:10:11;;;;;;;;;1.00;1.00;;;;;22.42;36.93;98324.50;5068928;27;45675;-76
2023/03/10 02:12:36;;;;;;;;;1.50;1.00;;;;;22.41;36.63;98314.84;5061713;28;65317;-75
2023/03/10 02:15:03;;;;;;;;;0.00;0.00;;;;;22.34;37.20;98299.53;5046211;28;64646;-76
2023/03/10 02:17:28;;;;;;;;;2.00;0.25;;;;;22.41;36.76;98305.00;5056699;28;46882;-76
2023/03/10 02:20:12;;;;;;;;;0.75;0.00;;;;;22.39;37.17;98288.38;5065925;28;73254;-76
2023/03/10 02:22:38;;;;;;;;;3.75;0.00;;;;;22.39;37.04;98300.88;5067117;27;45429;-76
2023/03/10 02:25:17;;;;;;;;;2.00;0.00;;;;;22.37;36.96;98287.72;5060701;28;45428;-76
2023/03/10 02:27:43;;;;;;;;;0.00;0.00;;;;;22.37;37.16;98285.88;5057467;28;46490;-76
2023/03/10 02:30:42;;;;;;;;;0.00;0.00;;;;;22.36;37.14;98284.22;5071230;28;45449;-76
2023/03/10 02:33:17;;;;;;;;;0.75;0.75;;;;;22.34;36.62;98277.41;5051214;28;45455;-76
2023/03/10 02:35:43;;;;;;;;;1.00;0.00;;;;;22.29;36.76;98275.28;5062743;28;45529;-76
2023/03/10 02:38:08;;;;;;;;;6.25;0.00;;;;;22.32;36.77;98277.56;5075645;27;73207;-76
2023/03/10 02:40:44;;;;;;;;;2.00;0.25;;;;;22.34;37.00;98282.72;5063252;27;67429;-76
2023/03/10 02:43:18;;;;;;;;;0.50;0.50;;;;;22.31;36.61;98281.28;5076878;27;45544;-76
2023/03/10 02:45:45;;;;;;;;;0.25;0.00;;;;;22.29;36.38;98275.28;5056190;28;46147;-76
2023/03/10 02:48:12;;;;;;;;;0.00;0.00;;;;;22.31;36.72;98273.28;5071143;28;45274;-76
2023/03/10 02:50:40;;;;;;;;;0.25;0.00;;;;;22.32;36.99;98274.09;5050491;28;45612;-76
2023/03/10 02:53:21;;;;;;;;;1.50;0.00;;;;;22.30;36.69;98266.28;5051048;28;45533;-76
2023/03/10 02:55:46;;;;;;;;;1.00;0.00;;;;;22.31;36.91;98264.44;5055076;27;47433;-76
2023/03/10 02:58:12;;;;;;;;;0.00;0.00;;;;;22.31;37.06;98257.28;5069218;28;59662;-76
2023/03/10 03:00:42;;;;;;;;;0.00;0.00;;;;;22.31;36.61;98256.44;5068210;27;45727;-76
2023/03/10 03:03:08;;;;;;;;;0.25;0.00;;;;;22.29;36.40;98259.31;5066927;27;45711;-75
2023/03/10 03:05:35;;;;;;;;;0.00;0.00;;;;;22.31;36.83;98267.09;5077231;27;45445;-76
2023/03/10 03:08:00;;;;;;;;;2.50;0.00;;;;;22.27;36.94;98255.97;5058607;28;48436;-75
2023/03/10 03:10:26;;;;;;;;;0.25;0.00;;;;;22.29;36.42;98258.44;5061051;28;47014;-75
2023/03/10 03:12:51;;;;;;;;;1.25;0.00;;;;;22.28;36.66;98262.97;5047704;28;45487;-75
2023/03/10 03:15:18;;;;;;;;;0.00;0.00;;;;;22.27;36.65;98257.81;5070469;27;45145;-76
2023/03/10 03:17:43;;;;;;;;;2.00;0.00;;;;;22.25;36.73;98247.28;5074526;27;45507;-76
2023/03/10 03:20:13;;;;;;;;;4.00;0.00;;;;;22.27;36.67;98249.81;5072241;27;66452;-76
2023/03/10 03:22:43;;;;;;;;;0.00;0.00;;;;;22.26;36.88;98248.97;5067074;28;45334;-75
2023/03/10 03:25:10;;;;;;;;;2.50;1.00;;;;;22.23;36.84;98235.16;5061647;28;45688;-75
2023/03/10 03:27:35;;;;;;;;;2.00;0.00;;;;;22.25;36.60;98238.47;5058029;28;47171;-76
2023/03/10 03:30:03;;;;;;;;;1.50;0.00;;;;;22.27;36.25;98247.16;5074778;27;45465;-76
2023/03/10 03:32:28;;;;;;;;;2.00;1.00;;;;;22.25;36.91;98243.81;5066935;27;45355;-76
2023/03/10 03:34:53;;;;;;;;;0.00;0.00;;;;;22.25;36.43;98247.28;5068071;28;70777;-76
2023/03/10 03:37:18;;;;;;;;;1.00;1.00;;;;;22.25;36.21;98259.78;5065250;27;73199;-76
2023/03/10 03:39:44;;;;;;;;;3.50;0.00;;;;;22.23;36.34;98251.16;5069797;27;73334;-76
2023/03/10 03:42:09;;;;;;;;;0.75;0.00;;;;;22.22;36.49;98254.81;5065275;28;60242;-76
2023/03/10 03:44:34;;;;;;;;;0.00;0.00;;;;;22.21;36.74;98248.66;5077512;27;45498;-76
2023/03/10 03:47:00;;;;;;;;;0.00;0.00;;;;;22.24;36.40;98258.13;5056427;28;53481;-76
2023/03/10 03:49:25;;;;;;;;;1.00;1.00;;;;;22.23;36.60;98261.81;5075520;27;59175;-76
2023/03/10 03:51:50;;;;;;;;;0.25;0.00;;;;;22.22;36.22;98268.94;5068020;27;45255;-76
2023/03/10 03:54:16;;;;;;;;;0.25;0.25;;;;;22.23;36.49;98267.97;5068144;28;72033;-76
2023/03/10 03:56:41;;;;;;;;;0.00;0.00;;;;;22.23;36.77;98272.47;5068556;27;47105;-76
2023/03/10 03:59:06;;;;;;;;;0.50;0.00;;;;;22.22;36.62;98265.47;5076890;27;73265;-76
2023/03/10 04:01:32;;;;;;;;;0.00;0.00;;;;;22.19;36.46;98262.16;5067764;27;59199;-76
2023/03/10 04:03:57;;;;;;;;;2.00;0.00;;;;;22.21;36.49;98267.31;5069947;28;71966;-76
2023/03/10 04:06:22;;;;;;;;;0.75;0.00;;;;;22.21;36.37;98269.97;5077175;27;45246;-76
2023/03/10 04:08:49;;;;;;;;;0.00;0.00;;;;;22.17;36.32;98256.19;5067412;27;45287;-76
2023/03/10 04:11:14;;;;;;;;;1.00;0.00;;;;;22.21;36.63;98258.50;5075183;28;45590;-76
2023/03/10 04:13:40;;;;;;;;;0.75;0.00;;;;;22.21;36.61;98261.16;5070074;28;61997;-76
2023/03/10 04:16:06;;;;;;;;;0.50;0.00;;;;;22.16;36.39;98256.34;5069491;28;45378;-76
2023/03/10 04:18:31;;;;;;;;;1.00;0.00;;;;;22.18;36.58;98259.66;5097185;27;45511;-76
2023/03/10 04:20:56;;;;;;;;;0.50;0.00;;;;;22.19;36.78;98256.00;5067594;28;61046;-76
2023/03/10 04:23:22;;;;;;;;;3.75;0.00;;;;;22.19;36.75;98256.81;5070385;27;45347;-76
2023/03/10 04:25:48;;;;;;;;;0.00;0.00;;;;;22.19;36.77;98251.50;5073666;27;46253;-76
2023/03/10 04:28:13;;;;;;;;;1.00;0.00;;;;;22.18;36.54;98249.81;5080143;27;45371;-76
2023/03/10 04:30:41;;;;;;;;;1.00;0.00;;;;;22.19;36.59;98261.34;5070500;27;61090;-76
2023/03/10 04:33:08;;;;;;;;;0.00;0.00;;;;;22.17;36.79;98258.84;5065999;27;45673;-76
2023/03/10 04:35:33;;;;;;;;;1.50;0.50;;;;;22.15;36.61;98252.03;5047874;28;48388;-76
2023/03/10 04:37:59;;;;;;;;;0.00;0.00;;;;;22.14;36.43;98253.03;5067055;27;45293;-76
2023/03/10 04:40:24;;;;;;;;;0.75;0.00;;;;;22.16;36.69;98251.03;5066897;27;57952;-76
2023/03/10 04:42:49;;;;;;;;;0.00;0.00;;;;;22.17;36.77;98258.84;5067358;28;65533;-76
2023/03/10 04:45:15;;;;;;;;;0.00;0.00;;;;;22.15;36.50;98252.88;5065502;28;66443;-76
2023/03/10 04:47:40;;;;;;;;;0.00;0.00;;;;;22.15;36.64;98254.69;5071256;27;45350;-76
2023/03/10 04:50:06;;;;;;;;;0.25;0.00;;;;;22.15;36.68;98258.19;5070334;28;53120;-76
2023/03/10 04:52:32;;;;;;;;;1.00;0.00;;;;;22.15;36.63;98255.53;5071462;27;45433;-76
2023/03/10 04:54:57;;;;;;;;;0.25;0.00;;;;;22.16;36.25;98249.19;5064053;28;62612;-76
2023/03/10 04:57:23;;;;;;;;;0.00;0.00;;;;;22.12;36.20;98252.41;5074388;27;59543;-76
2023/03/10 04:59:49;;;;;;;;;1.00;0.00;;;;;22.15;36.62;98258.19;5066533;28;45574;-76
2023/03/10 05:02:14;;;;;;;;;2.00;0.00;;;;;22.14;36.69;98269.03;5074657;28;45556;-76
2023/03/10 05:04:40;;;;;;;;;3.50;0.00;;;;;22.12;36.34;98265.72;5067473;28;46283;-76
2023/03/10 05:07:05;;;;;;;;;0.50;0.00;;;;;22.14;36.73;98271.69;5080017;27;45369;-76
2023/03/10 05:09:34;;;;;;;;;1.50;0.25;;;;;22.11;36.39;98270.19;5070449;27;45425;-76
2023/03/10 05:11:59;;;;;;;;;0.00;0.00;;;;;22.13;36.72;98268.22;5079060;27;45526;-75
2023/03/10 05:14:25;;;;;;;;;0.00;0.00;;;;;22.12;36.65;98269.19;5064896;27;71672;-75
2023/03/10 05:16:50;;;;;;;;;0.00;0.00;;;;;22.12;36.28;98269.19;5070544;27;49213;-76
2023/03/10 05:19:16;;;;;;;;;0.00;0.00;;;;;22.10;36.65;98265.88;5063796;28;65263;-76
2023/03/10 05:21:41;;;;;;;;;0.00;0.00;;;;;22.10;36.51;98265.88;5076349;27;45578;-76
2023/03/10 05:24:07;;;;;;;;;0.50;0.50;;;;;22.11;36.86;98270.19;5066138;28;70008;-76
2023/03/10 05:26:32;;;;;;;;;0.00;0.00;;;;;22.11;36.40;98270.19;5076100;27;45329;-76
2023/03/10 05:28:57;;;;;;;;;1.00;0.00;;;;;22.08;36.51;98285.69;5073968;27;52287;-76
2023/03/10 05:31:25;;;;;;;;;0.00;0.00;;;;;22.09;35.98;98288.19;5070267;27;67407;-76
2023/03/10 05:33:52;;;;;;;;;0.00;0.00;;;;;22.08;36.57;98272.38;5065703;28;46144;-76
2023/03/10 05:36:17;;;;;;;;;1.75;0.00;;;;;22.09;36.17;98290.84;5067515;28;45526;-76
2023/03/10 05:38:43;;;;;;;;;0.00;0.00;;;;;22.05;36.45;98278.91;5065182;28;61221;-76
2023/03/10 05:41:09;;;;;;;;;0.25;0.00;;;;;22.07;36.45;98289.38;5065215;27;74802;-76
2023/03/10 05:43:35;;;;;;;;;1.00;0.00;;;;;22.05;36.48;98281.56;5067818;28;46182;-76
2023/03/10 05:46:00;;;;;;;;;1.25;0.00;;;;;22.07;36.69;98284.88;5065516;28;45935;-76
2023/03/10 05:48:26;;;;;;;;;0.25;0.00;;;;;22.04;36.25;98289.72;5065021;27;45396;-76
2023/03/10 05:51:21;;;;;;;;;0.25;0.00;;;;;22.08;36.15;98288.34;5064647;28;46522;-75
2023/03/10 05:53:47;;;;;;;;;0.00;0.00;;;;;22.07;36.52;98278.72;5055622;27;46533;-75
2023/03/10 05:56:15;;;;;;;;;1.25;0.00;;;;;22.02;36.86;98281.09;5058578;28;45855;-75
2023/03/10 05:58:40;;;;;;;;;0.00;0.00;;;;;22.04;36.55;98284.41;5065639;27;45340;-75
2023/03/10 06:01:06;;;;;;;;;1.50;0.00;;;;;22.06;36.58;98280.56;5052785;28;45513;-75
2023/03/10 06:03:32;;;;;;;;;0.25;0.00;;;;;22.05;36.13;98296.72;5077203;28;46263;-75
2023/03/10 06:05:58;;;;;;;;;3.00;0.00;;;;;22.05;36.72;98288.72;5080198;27;45476;-75
2023/03/10 06:08:24;;;;;;;;;0.00;0.00;;;;;22.04;36.32;98284.41;5065314;28;69410;-75
2023/03/10 06:10:49;;;;;;;;;0.00;0.00;;;;;22.04;36.14;98306.53;5061206;28;46558;-71
2023/03/10 06:13:18;;;;;;;;;2.00;0.00;;;;;22.03;36.44;98309.34;5076850;27;45464;-77
2023/03/10 06:15:48;;;;;;;;;0.25;0.00;;;;;21.99;36.77;98303.56;5066379;27;45318;-77
2023/03/10 06:18:13;;;;;;;;;0.00;0.00;;;;;22.00;36.83;98314.03;5065637;28;45323;-75
2023/03/10 06:20:39;;;;;;;;;0.50;0.00;;;;;21.99;36.70;98309.72;5061372;27;73670;-78
2023/03/10 06:23:04;;;;;;;;;1.75;0.00;;;;;22.00;36.61;98326.53;5056736;28;74462;-78
2023/03/10 06:25:29;;;;;;;;;1.00;0.00;;;;;22.02;36.48;98319.19;5072661;27;45357;-77
2023/03/10 06:27:55;;;;;;;;;0.25;0.00;;;;;21.99;36.57;98322.19;5075216;27;66652;-76
2023/03/10 06:30:20;;;;;;;;;0.75;0.00;;;;;22.01;36.53;98330.88;5072812;27;73513;-77
2023/03/10 06:32:45;;;;;;;;;1.00;0.00;;;;;21.98;36.78;98336.53;5066855;28;45458;-77
2023/03/10 06:35:12;;;;;;;;;1.00;1.00;;;;;22.02;36.49;98351.16;5065264;28;63237;-77
2023/03/10 06:37:38;;;;;;;;;2.00;0.25;;;;;21.98;36.48;98350.66;5050925;27;45419;-77
2023/03/10 06:40:06;;;;;;;;;0.75;0.75;;;;;21.95;36.42;98343.00;5069131;28;69664;-77
2023/03/10 06:42:32;;;;;;;;;1.50;0.00;;;;;21.98;36.19;98352.50;5074723;27;48448;-76
2023/03/10 06:44:57;;;;;;;;;1.00;0.00;;;;;21.95;36.30;98348.34;5068025;27;70881;-79
2023/03/10 06:47:22;;;;;;;;;0.75;0.00;;;;;21.98;36.32;98363.16;5046686;28;70620;-79
2023/03/10 06:49:48;;;;;;;;;0.25;0.00;;;;;21.96;36.52;98357.19;5078773;28;45227;-77
2023/03/10 06:52:13;;;;;;;;;0.00;0.00;;;;;21.94;36.93;98357.34;5080141;27;46028;-74
2023/03/10 06:54:38;;;;;;;;;0.00;0.00;;;;;21.98;36.42;98369.31;5056586;28;67536;-76
2023/03/10 06:57:04;;;;;;;;;0.00;0.00;;;;;21.99;36.23;98383.44;5069795;28;67096;-76
2023/03/10 06:59:31;;;;;;;;;0.00;0.00;;;;;21.97;36.26;98383.66;5087325;27;45516;-69
2023/03/10 07:01:57;;;;;;;;;0.75;0.00;;;;;21.94;36.39;98385.81;5068468;28;47126;-69
2023/03/10 07:04:22;;;;;;;;;0.00;0.00;;;;;21.94;36.58;98394.63;5073156;27;45504;-70
2023/03/10 07:06:47;;;;;;;;;1.75;0.25;;;;;21.94;36.35;98405.28;5065631;28;45492;-68
2023/03/10 07:09:13;;;;;;;;;0.00;0.00;;;;;21.95;36.34;98398.94;5069640;27;64255;-69
2023/03/10 07:11:38;;;;;;;;;0.00;0.00;;;;;21.94;36.71;98413.28;5071194;28;71895;-78
2023/03/10 07:14:03;;;;;;;;;1.50;0.00;;;;;21.91;36.61;98407.47;5070813;27;65136;-75
2023/03/10 07:16:29;;;;;;;;;0.00;0.00;;;;;21.93;36.97;98416.09;5074057;27;45645;-75
2023/03/10 07:18:54;;;;;;;;;0.00;0.00;;;;;21.97;37.37;98428.06;5069487;27;69180;-78
2023/03/10 07:21:20;;;;;;;;;0.00;0.00;;;;;21.97;36.78;98439.56;5061307;28;46145;-77
2023/03/10 07:23:46;;;;;;;;;0.00;0.00;;;;;22.01;36.63;98445.38;5094565;27;45268;-75
2023/03/10 07:26:17;;;;;;;;;0.00;0.00;;;;;22.00;37.01;98447.19;5059514;28;66503;-75
2023/03/10 07:28:43;;;;;;;;;0.00;0.00;;;;;22.01;36.57;98458.69;5083192;27;45572;-75
2023/03/10 07:31:10;;;;;;;;;0.00;0.00;;;;;22.07;37.16;98460.66;5056321;28;47461;-72
2023/03/10 07:33:37;;;;;;;;;0.00;0.00;;;;;22.09;36.84;98473.81;5085935;27;45655;-72
2023/03/10 07:36:05;;;;;;;;;1.25;0.00;;;;;22.09;36.95;98471.16;5073696;27;45464;-72
2023/03/10 07:38:30;;;;;;;;;0.25;0.00;;;;;22.10;37.57;98488.81;5081001;27;45542;-71
2023/03/10 07:40:56;;;;;;;;;0.00;0.00;;;;;22.13;37.27;98488.44;5077725;27;49831;-73
2023/03/10 07:43:21;;;;;;;;;0.00;0.00;;;;;22.13;37.08;98491.97;5063836;27;45276;-73
2023/03/10 07:45:46;;;;;;;;;0.00;0.00;;;;;22.17;37.09;98506.59;5080216;27;66229;-74
2023/03/10 07:48:12;;;;;;;;;0.00;0.00;;;;;22.19;37.03;98509.91;5073515;27;45268;-74
2023/03/10 07:50:37;;;;;;;;;1.50;0.00;;;;;22.24;37.46;98532.53;5079915;27;63290;-74
2023/03/10 07:53:02;;;;;;;;;0.00;0.00;;;;;22.25;37.13;98552.88;5056889;28;56184;-74
2023/03/10 07:55:28;;;;;;;;;0.75;0.00;;;;;22.27;37.05;98545.56;5074425;27;64861;-76
2023/03/10 07:57:55;;;;;;;;;0.00;0.00;;;;;22.29;37.31;98559.53;5073423;27;45548;-74
2023/03/10 08:00:21;;;;;;;;;1.00;0.00;;;;;22.27;37.15;98554.38;5073173;27;46168;-77
2023/03/10 08:02:46;;;;;;;;;0.00;0.00;;;;;22.29;37.18;98563.06;5065640;27;45395;-74
2023/03/10 08:05:13;;;;;;;;;1.25;0.00;;;;;22.32;37.38;98577.88;5072590;27;60790;-74
2023/03/10 08:07:38;;;;;;;;;1.00;0.00;;;;;22.35;37.56;98585.53;5071900;27;45456;-74
2023/03/10 08:10:04;;;;;;;;;0.00;0.00;;;;;22.34;37.35;98591.84;5059904;28;47937;-74
2023/03/10 08:12:30;;;;;;;;;0.25;0.00;;;;;22.41;37.32;98613.31;5064718;27;45889;-74
2023/03/10 08:14:55;;;;;;;;;0.00;0.00;;;;;22.40;37.24;98608.97;5076470;27;50495;-74
2023/03/10 08:17:22;;;;;;;;;0.25;0.00;;;;;22.40;37.15;98607.19;5071148;27;45600;-74
2023/03/10 08:19:47;;;;;;;;;0.25;0.00;;;;;22.45;37.21;98620.81;5072225;27;45413;-74
2023/03/10 08:22:12;;;;;;;;;0.00;0.00;;;;;22.45;37.07;98634.16;5078305;27;55631;-74
2023/03/10 08:24:38;;;;;;;;;0.25;0.00;;;;;22.50;37.03;98644.28;5087899;27;45338;-74
2023/03/10 08:27:04;;;;;;;;;0.00;0.00;;;;;22.51;37.46;98657.44;5064305;28;45382;-74
2023/03/10 08:29:29;;;;;;;;;1.00;0.00;;;;;22.53;37.34;98674.09;5070756;27;45392;-74
2023/03/10 08:31:55;;;;;;;;;0.00;0.00;;;;;22.53;37.56;98651.94;5079814;27;58268;-74
2023/03/10 08:34:20;;;;;;;;;0.50;0.00;;;;;22.54;37.32;98675.78;5078999;27;70079;-74
2023/03/10 08:36:46;;;;;;;;;0.00;0.00;;;;;22.55;37.37;98681.94;5070534;27;45654;-73
2023/03/10 08:39:11;;;;;;;;;2.00;0.00;;;;;22.60;37.20;98705.44;5069542;27;46186;-74
2023/03/10 08:41:41;;;;;;;;;1.00;0.00;;;;;22.60;37.09;98698.25;5073911;28;45238;-73
2023/03/10 08:44:07;;;;;;;;;2.75;0.00;;;;;22.62;36.89;98712.25;5044607;28;45416;-73
2023/03/10 08:46:33;;;;;;;;;0.25;0.00;;;;;22.65;37.05;98716.44;5061676;28;54924;-74
2023/03/10 08:48:59;;;;;;;;;0.00;0.00;;;;;22.67;36.80;98720.56;5065214;27;47226;-73
2023/03/10 08:51:25;;;;;;;;;0.00;0.00;;;;;22.65;36.95;98730.59;5068782;27;45513;-75
2023/03/10 08:53:51;;;;;;;;;0.00;0.00;;;;;22.69;36.90;98750.56;5077762;27;45395;-76
2023/03/10 08:56:18;;;;;;;;;0.00;0.00;;;;;22.72;36.84;98741.41;5074110;27;45447;-75
2023/03/10 08:58:44;;;;;;;;;0.00;0.00;;;;;22.66;36.91;98742.06;5088233;27;47541;-75
2023/03/10 09:01:11;;;;;;;;;1.00;0.00;;;;;22.74;36.77;98748.22;5086274;27;45216;-72
2023/03/10 09:03:38;;;;;;;;;0.00;0.00;;;;;22.78;37.17;98753.22;5055433;28;45493;-78
2023/03/10 09:06:04;;;;;;;;;1.00;0.00;;;;;22.78;37.20;98763.91;5076493;27;45597;-75
2023/03/10 09:08:29;;;;;;;;;1.00;0.00;;;;;22.80;36.90;98804.56;5062411;28;46216;-76
2023/03/10 09:10:55;;;;;;;;;0.00;0.00;;;;;22.77;37.10;98773.75;5067734;28;45427;-77
2023/03/10 09:13:20;;;;;;;;;0.25;0.00;;;;;22.79;36.95;98782.41;5078891;27;62904;-77
2023/03/10 09:15:46;;;;;;;;;1.00;0.00;;;;;22.76;36.99;98790.72;5067154;28;64138;-76
2023/03/10 09:18:14;;;;;;;;;1.00;0.00;;;;;22.77;37.01;98804.88;5078793;27;46150;-77
2023/03/10 09:20:40;;;;;;;;;2.00;0.00;;;;;22.74;36.72;98822.91;5061540;28;45284;-77
2023/03/10 09:23:06;;;;;;;;;0.00;0.00;;;;;22.73;36.91;98825.72;5068014;28;45488;-77
2023/03/10 09:25:32;;;;;;;;;0.00;0.00;;;;;22.69;36.65;98840.41;5069340;28;45398;-77
2023/03/10 09:27:57;;;;;;;;;0.00;0.00;;;;;22.71;37.01;98857.88;5075735;28;47415;-77
2023/03/10 09:30:23;;;;;;;;;0.00;0.00;;;;;22.69;36.88;98857.22;5074541;28;45442;-77
2023/03/10 09:32:48;;;;;;;;;0.00;0.00;;;;;22.67;36.49;98869.91;5074472;27;45521;-77
2023/03/10 09:35:14;;;;;;;;;1.00;0.00;;;;;22.65;37.05;98865.75;5079253;27;45473;-77
2023/03/10 09:37:42;;;;;;;;;0.50;0.00;;;;;22.64;36.95;98893.38;5078673;28;63939;-77
2023/03/10 09:40:14;;;;;;;;;0.00;0.00;;;;;22.67;37.04;98903.72;5059432;28;52983;-77
2023/03/10 09:42:45;;;;;;;;;0.25;0.00;;;;;22.64;37.06;98906.72;5068492;28;45363;-77
2023/03/10 09:45:15;;;;;;;;;0.00;0.00;;;;;22.65;36.94;98921.72;5048925;28;45514;-77
2023/03/10 09:47:44;;;;;;;;;0.25;0.00;;;;;22.66;36.93;98910.06;5079605;27;47408;-77
2023/03/10 09:50:22;;;;;;;;;1.50;0.00;;;;;22.63;36.89;98921.91;5066073;27;45600;-77
2023/03/10 09:52:58;;;;;;;;;0.00;0.00;;;;;22.62;36.44;98922.88;5042229;28;45393;-77
2023/03/10 09:55:32;;;;;;;;;0.25;0.00;;;;;22.62;36.76;98943.38;5065129;28;45650;-76
2023/03/10 09:57:57;;;;;;;;;1.00;0.00;;;;;22.62;36.73;98954.03;5059903;28;47740;-77
2023/03/10 10:00:26;;;;;;;;;2.00;0.00;;;;;22.60;36.79;98959.53;5070518;28;45354;-77
2023/03/10 10:03:02;;;;;;;;;0.00;0.00;;;;;22.53;37.03;98971.84;5070891;28;45478;-77
2023/03/10 10:05:30;;;;;;;;;1.25;0.00;;;;;22.61;36.76;98981.69;5051136;28;45381;-77
2023/03/10 10:07:56;;;;;;;;;0.50;0.00;;;;;22.62;36.46;98996.72;5077166;27;47159;-76
2023/03/10 10:10:27;;;;;;;;;0.00;0.00;;;;;22.64;37.06;99000.03;5056105;28;46462;-77
2023/03/10 10:12:53;;;;;;;;;0.00;0.00;;;;;22.63;36.60;99011.69;5067769;28;45252;-77
2023/03/10 10:15:22;;;;;;;;;0.00;0.00;;;;;22.59;36.99;99024.50;5070559;27;45279;-77
2023/03/10 10:18:08;;;;;;;;;0.00;0.00;;;;;22.61;36.48;99035.88;5049995;28;48065;-77
2023/03/10 10:20:41;;;;;;;;;0.00;0.00;;;;;22.66;36.93;99056.72;5071994;28;46076;-77
2023/03/10 10:23:20;;;;;;;;;0.00;0.00;;;;;22.65;36.72;99039.06;5055615;28;45368;-77
2023/03/10 10:25:46;;;;;;;;;0.00;0.00;;;;;22.64;36.72;99066.69;5067261;27;45378;-76
2023/03/10 10:28:31;;;;;;;;;1.00;0.00;;;;;22.65;36.60;99071.88;5065828;28;45476;-77
2023/03/10 10:31:09;;;;;;;;;0.25;0.00;;;;;22.63;36.48;99075.69;5076408;28;45567;-77
2023/03/10 10:33:52;;;;;;;;;3.00;0.00;;;;;22.65;36.50;99076.38;5076810;28;45562;-77
2023/03/10 10:36:18;;;;;;;;;0.00;0.00;;;;;22.60;36.60;99079.50;5075238;27;45437;-77
2023/03/10 10:38:49;;;;;;;;;0.00;0.00;;;;;22.61;36.33;99054.53;5075914;27;46045;-77
2023/03/10 10:41:20;;;;;;;;;1.00;0.00;;;;;22.61;36.28;99089.19;5070616;28;45260;-77
2023/03/10 10:43:46;;;;;;;;;0.75;0.00;;;;;22.59;36.08;99079.66;5078211;27;45410;-77
2023/03/10 10:46:14;;;;;;;;;0.25;0.25;;;;;22.60;36.23;99090.19;5057336;28;45536;-77
2023/03/10 10:48:45;;;;;;;;;2.50;0.00;;;;;22.63;36.35;99081.88;5066493;28;45422;-77
2023/03/10 10:51:31;;;;;;;;;0.50;0.00;;;;;22.63;35.83;99097.88;5074604;28;45719;-77
2023/03/10 10:53:58;;;;;;;;;1.00;0.00;;;;;22.62;36.20;99103.34;5074467;27;45353;-77
2023/03/10 10:56:24;;;;;;;;;0.00;0.00;;;;;22.61;36.16;99104.34;5072390;27;45334;-77
2023/03/10 10:59:18;;;;;;;;;0.00;0.00;;;;;22.62;36.10;99124.69;5071202;28;45430;-76
2023/03/10 11:01:48;;;;;;;;;0.00;0.00;;;;;22.62;36.43;99146.84;5046614;28;46046;-76
2023/03/10 11:04:13;;;;;;;;;0.25;0.00;;;;;22.60;35.90;99140.84;5068130;27;45323;-77
2023/03/10 11:06:39;;;;;;;;;1.00;1.00;;;;;22.56;36.30;99140.31;5084335;27;62688;-76
2023/03/10 11:09:17;;;;;;;;;2.00;0.00;;;;;22.65;35.90;99175.03;5076423;27;59723;-77
2023/03/10 11:12:01;;;;;;;;;0.00;0.00;;;;;22.66;36.02;99163.38;5076202;27;45534;-77
2023/03/10 11:14:27;;;;;;;;;0.00;0.00;;;;;22.67;36.42;99165.88;5065456;27;45406;-77
2023/03/10 11:17:13;;;;;;;;;0.25;0.00;;;;;22.69;36.03;99187.06;5083842;27;45521;-77
2023/03/10 11:19:48;;;;;;;;;0.00;0.00;;;;;22.70;35.72;99188.72;5078555;28;46226;-77
2023/03/10 11:22:34;;;;;;;;;1.00;0.00;;;;;22.70;36.20;99204.72;5079078;27;45356;-77
2023/03/10 11:25:24;;;;;;;;;2.00;0.00;;;;;22.71;36.04;99190.41;5065680;27;45339;-76
2023/03/10 11:28:24;;;;;;;;;0.75;0.00;;;;;22.72;36.13;99202.75;5075704;27;45477;-76
2023/03/10 11:31:20;;;;;;;;;0.00;0.00;;;;;22.70;36.06;99197.56;5072240;28;47866;-76
2023/03/10 11:33:51;;;;;;;;;1.50;1.00;;;;;22.69;35.44;99227.88;5071085;27;45211;-76
2023/03/10 11:36:19;;;;;;;;;1.00;0.25;;;;;22.70;35.87;99194.91;5066351;27;45333;-76